sensor_id;sensor_type;location;lat;lon;timestamp;P1;durP1;ratioP1;P2;durP2;ratioP2
70543;SDS011;58097;48.364;-1.224;2023-02-16T00:01:47;36.05;;;17.30;;
70543;SDS011;58097;48.364;-1.224;2023-02-16T00:04:17;34.63;;;18.15;;
70543;SDS011;58097;48.364;-1.224;2023-02-16T00:06:51;32.40;;;17.27;;
70543;SDS011;58097;48.364;-1.224;2023-02-16T00:09:17;32.97;;;18.05;;
70543;SDS011;58097;48.364;-1.224;2023-02-16T00:11:44;34.08;;;16.58;;
70543;SDS011;58097;48.364;-1.224;2023-02-16T00:14:29;31.33;;;17.35;;
70543;SDS011;58097;48.364;-1.224;2023-02-16T00:16:56;30.70;;;16.85;;
70543;SDS011;58097;48.364;-1.224;2023-02-16T00:21:55;32.90;;;17.23;;
70543;SDS011;58097;48.364;-1.224;2023-02-16T00:24:21;28.80;;;16.27;;
70543;SDS011;58097;48.364;-1.224;2023-02-16T00:26:48;33.55;;;16.95;;
70543;SDS011;58097;48.364;-1.224;2023-02-16T00:29:21;27.73;;;16.58;;
70543;SDS011;58097;48.364;-1.224;2023-02-16T00:31:52;31.20;;;17.55;;
70543;SDS011;58097;48.364;-1.224;2023-02-16T00:34:26;34.47;;;16.65;;
70543;SDS011;58097;48.364;-1.224;2023-02-16T00:36:52;32.13;;;17.02;;
70543;SDS011;58097;48.364;-1.224;2023-02-16T00:39:18;25.10;;;15.98;;
70543;SDS011;58097;48.364;-1.224;2023-02-16T00:41:44;35.63;;;16.60;;
70543;SDS011;58097;48.364;-1.224;2023-02-16T00:44:19;22.98;;;11.38;;
70543;SDS011;58097;48.364;-1.224;2023-02-16T00:46:49;26.70;;;15.93;;
70543;SDS011;58097;48.364;-1.224;2023-02-16T00:49:16;33.45;;;15.32;;
70543;SDS011;58097;48.364;-1.224;2023-02-16T00:51:42;34.50;;;15.50;;
70543;SDS011;58097;48.364;-1.224;2023-02-16T00:54:08;27.35;;;15.38;;
70543;SDS011;58097;48.364;-1.224;2023-02-16T00:56:33;29.00;;;15.38;;
70543;SDS011;58097;48.364;-1.224;2023-02-16T00:58:59;27.80;;;14.95;;
70543;SDS011;58097;48.364;-1.224;2023-02-16T01:01:28;25.73;;;14.38;;
70543;SDS011;58097;48.364;-1.224;2023-02-16T01:03:57;21.27;;;13.20;;
70543;SDS011;58097;48.364;-1.224;2023-02-16T01:06:26;22.80;;;13.45;;
70543;SDS011;58097;48.364;-1.224;2023-02-16T01:09:19;24.00;;;14.55;;
70543;SDS011;58097;48.364;-1.224;2023-02-16T01:12:04;23.33;;;14.23;;
70543;SDS011;58097;48.364;-1.224;2023-02-16T01:14:38;22.42;;;13.90;;
70543;SDS011;58097;48.364;-1.224;2023-02-16T01:17:04;24.48;;;13.77;;
70543;SDS011;58097;48.364;-1.224;2023-02-16T01:19:29;21.08;;;12.95;;
70543;SDS011;58097;48.364;-1.224;2023-02-16T01:21:54;26.42;;;14.00;;
70543;SDS011;58097;48.364;-1.224;2023-02-16T01:24:20;21.40;;;13.27;;
70543;SDS011;58097;48.364;-1.224;2023-02-16T01:26:46;22.85;;;13.25;;
70543;SDS011;58097;48.364;-1.224;2023-02-16T01:29:14;25.90;;;14.18;;
70543;SDS011;58097;48.364;-1.224;2023-02-16T01:31:41;23.02;;;14.43;;
70543;SDS011;58097;48.364;-1.224;2023-02-16T01:34:07;26.40;;;14.70;;
70543;SDS011;58097;48.364;-1.224;2023-02-16T01:36:34;21.73;;;13.68;;
70543;SDS011;58097;48.364;-1.224;2023-02-16T01:39:02;24.13;;;14.05;;
70543;SDS011;58097;48.364;-1.224;2023-02-16T01:44:03;22.70;;;12.82;;
70543;SDS011;58097;48.364;-1.224;2023-02-16T01:49:02;25.75;;;13.55;;
70543;SDS011;58097;48.364;-1.224;2023-02-16T01:51:28;29.25;;;14.40;;
70543;SDS011;58097;48.364;-1.224;2023-02-16T01:53:57;22.67;;;13.18;;
70543;SDS011;58097;48.364;-1.224;2023-02-16T01:56:40;25.13;;;14.70;;
70543;SDS011;58097;48.364;-1.224;2023-02-16T02:01:58;31.30;;;16.05;;
70543;SDS011;58097;48.364;-1.224;2023-02-16T02:04:27;26.60;;;16.02;;
70543;SDS011;58097;48.364;-1.224;2023-02-16T02:07:18;30.92;;;16.00;;
70543;SDS011;58097;48.364;-1.224;2023-02-16T02:09:55;26.55;;;15.93;;
70543;SDS011;58097;48.364;-1.224;2023-02-16T02:12:28;28.70;;;14.02;;
70543;SDS011;58097;48.364;-1.224;2023-02-16T02:15:02;25.95;;;14.15;;
70543;SDS011;58097;48.364;-1.224;2023-02-16T02:17:27;29.83;;;16.30;;
70543;SDS011;58097;48.364;-1.224;2023-02-16T02:19:58;29.77;;;16.08;;
70543;SDS011;58097;48.364;-1.224;2023-02-16T02:25:59;27.67;;;15.00;;
70543;SDS011;58097;48.364;-1.224;2023-02-16T02:34:27;23.33;;;14.35;;
70543;SDS011;58097;48.364;-1.224;2023-02-16T02:37:02;30.33;;;16.42;;
70543;SDS011;58097;48.364;-1.224;2023-02-16T02:42:37;28.73;;;14.50;;
70543;SDS011;58097;48.364;-1.224;2023-02-16T02:45:46;26.08;;;14.20;;
70543;SDS011;58097;48.364;-1.224;2023-02-16T02:48:12;23.63;;;14.15;;
70543;SDS011;58097;48.364;-1.224;2023-02-16T02:50:42;23.13;;;13.90;;
70543;SDS011;58097;48.364;-1.224;2023-02-16T02:53:27;23.63;;;14.07;;
70543;SDS011;58097;48.364;-1.224;2023-02-16T02:55:53;22.85;;;13.75;;
70543;SDS011;58097;48.364;-1.224;2023-02-16T02:58:41;25.55;;;13.13;;
70543;SDS011;58097;48.364;-1.224;2023-02-16T03:01:27;26.95;;;14.60;;
70543;SDS011;58097;48.364;-1.224;2023-02-16T03:03:53;22.83;;;14.20;;
70543;SDS011;58097;48.364;-1.224;2023-02-16T03:08:56;20.23;;;13.48;;
70543;SDS011;58097;48.364;-1.224;2023-02-16T03:11:27;23.30;;;15.55;;
70543;SDS011;58097;48.364;-1.224;2023-02-16T03:17:34;27.50;;;15.02;;
70543;SDS011;58097;48.364;-1.224;2023-02-16T03:20:20;31.45;;;16.25;;
70543;SDS011;58097;48.364;-1.224;2023-02-16T03:23:04;24.08;;;13.15;;
70543;SDS011;58097;48.364;-1.224;2023-02-16T03:25:50;22.10;;;12.63;;
70543;SDS011;58097;48.364;-1.224;2023-02-16T03:28:35;27.90;;;15.68;;
70543;SDS011;58097;48.364;-1.224;2023-02-16T03:31:24;24.50;;;13.77;;
70543;SDS011;58097;48.364;-1.224;2023-02-16T03:33:54;26.63;;;14.88;;
70543;SDS011;58097;48.364;-1.224;2023-02-16T03:36:21;29.45;;;15.88;;
70543;SDS011;58097;48.364;-1.224;2023-02-16T03:38:50;30.75;;;16.77;;
70543;SDS011;58097;48.364;-1.224;2023-02-16T03:41:16;29.50;;;13.90;;
70543;SDS011;58097;48.364;-1.224;2023-02-16T03:43:41;27.52;;;15.02;;
70543;SDS011;58097;48.364;-1.224;2023-02-16T03:46:06;28.13;;;15.18;;
70543;SDS011;58097;48.364;-1.224;2023-02-16T03:48:32;28.65;;;15.45;;
70543;SDS011;58097;48.364;-1.224;2023-02-16T03:50:57;28.00;;;15.60;;
70543;SDS011;58097;48.364;-1.224;2023-02-16T03:53:22;28.15;;;15.90;;
70543;SDS011;58097;48.364;-1.224;2023-02-16T03:55:48;36.33;;;16.70;;
70543;SDS011;58097;48.364;-1.224;2023-02-16T03:58:16;24.50;;;14.27;;
70543;SDS011;58097;48.364;-1.224;2023-02-16T04:00:43;28.95;;;15.30;;
70543;SDS011;58097;48.364;-1.224;2023-02-16T04:03:09;29.58;;;15.20;;
70543;SDS011;58097;48.364;-1.224;2023-02-16T04:05:34;27.02;;;15.35;;
70543;SDS011;58097;48.364;-1.224;2023-02-16T04:08:00;28.70;;;16.42;;
70543;SDS011;58097;48.364;-1.224;2023-02-16T04:10:26;28.60;;;16.73;;
70543;SDS011;58097;48.364;-1.224;2023-02-16T04:12:51;25.50;;;15.77;;
70543;SDS011;58097;48.364;-1.224;2023-02-16T04:15:18;30.30;;;16.42;;
70543;SDS011;58097;48.364;-1.224;2023-02-16T04:17:46;31.00;;;15.52;;
70543;SDS011;58097;48.364;-1.224;2023-02-16T04:20:13;27.35;;;15.63;;
70543;SDS011;58097;48.364;-1.224;2023-02-16T04:22:41;28.98;;;15.50;;
70543;SDS011;58097;48.364;-1.224;2023-02-16T04:25:07;25.58;;;14.90;;
70543;SDS011;58097;48.364;-1.224;2023-02-16T04:27:33;27.60;;;16.05;;
70543;SDS011;58097;48.364;-1.224;2023-02-16T04:29:59;27.52;;;14.30;;
70543;SDS011;58097;48.364;-1.224;2023-02-16T04:32:24;28.67;;;15.95;;
70543;SDS011;58097;48.364;-1.224;2023-02-16T04:34:49;30.20;;;16.05;;
70543;SDS011;58097;48.364;-1.224;2023-02-16T04:37:15;33.42;;;17.85;;
70543;SDS011;58097;48.364;-1.224;2023-02-16T04:39:40;31.92;;;16.75;;
70543;SDS011;58097;48.364;-1.224;2023-02-16T04:42:06;23.92;;;14.85;;
70543;SDS011;58097;48.364;-1.224;2023-02-16T04:44:31;29.50;;;15.40;;
70543;SDS011;58097;48.364;-1.224;2023-02-16T04:46:57;27.90;;;15.85;;
70543;SDS011;58097;48.364;-1.224;2023-02-16T04:49:22;23.52;;;13.40;;
70543;SDS011;58097;48.364;-1.224;2023-02-16T04:51:47;25.17;;;15.55;;
70543;SDS011;58097;48.364;-1.224;2023-02-16T04:54:13;28.95;;;15.45;;
70543;SDS011;58097;48.364;-1.224;2023-02-16T04:56:38;28.38;;;14.95;;
70543;SDS011;58097;48.364;-1.224;2023-02-16T04:59:04;31.60;;;16.60;;
70543;SDS011;58097;48.364;-1.224;2023-02-16T05:01:29;25.38;;;14.90;;
70543;SDS011;58097;48.364;-1.224;2023-02-16T05:03:54;25.83;;;14.93;;
70543;SDS011;58097;48.364;-1.224;2023-02-16T05:06:20;30.33;;;15.90;;
70543;SDS011;58097;48.364;-1.224;2023-02-16T05:08:47;24.42;;;14.52;;
70543;SDS011;58097;48.364;-1.224;2023-02-16T05:11:13;24.67;;;12.77;;
70543;SDS011;58097;48.364;-1.224;2023-02-16T05:13:57;26.80;;;14.65;;
70543;SDS011;58097;48.364;-1.224;2023-02-16T05:16:41;25.40;;;15.32;;
70543;SDS011;58097;48.364;-1.224;2023-02-16T05:19:07;24.65;;;14.45;;
70543;SDS011;58097;48.364;-1.224;2023-02-16T05:21:33;24.67;;;14.45;;
70543;SDS011;58097;48.364;-1.224;2023-02-16T05:24:04;26.05;;;14.55;;
70543;SDS011;58097;48.364;-1.224;2023-02-16T05:26:31;25.67;;;13.95;;
70543;SDS011;58097;48.364;-1.224;2023-02-16T05:28:57;30.58;;;16.85;;
70543;SDS011;58097;48.364;-1.224;2023-02-16T05:31:23;26.13;;;16.38;;
70543;SDS011;58097;48.364;-1.224;2023-02-16T05:33:49;24.48;;;15.27;;
70543;SDS011;58097;48.364;-1.224;2023-02-16T05:36:14;32.10;;;15.10;;
70543;SDS011;58097;48.364;-1.224;2023-02-16T05:38:40;29.35;;;15.35;;
70543;SDS011;58097;48.364;-1.224;2023-02-16T05:41:06;24.42;;;13.60;;
70543;SDS011;58097;48.364;-1.224;2023-02-16T05:43:31;22.80;;;13.80;;
70543;SDS011;58097;48.364;-1.224;2023-02-16T05:45:56;26.25;;;14.63;;
70543;SDS011;58097;48.364;-1.224;2023-02-16T05:48:22;24.98;;;14.93;;
70543;SDS011;58097;48.364;-1.224;2023-02-16T05:50:47;26.83;;;15.20;;
70543;SDS011;58097;48.364;-1.224;2023-02-16T05:53:12;20.13;;;12.55;;
70543;SDS011;58097;48.364;-1.224;2023-02-16T05:55:38;31.27;;;15.73;;
70543;SDS011;58097;48.364;-1.224;2023-02-16T05:58:03;28.30;;;15.52;;
70543;SDS011;58097;48.364;-1.224;2023-02-16T06:00:28;30.20;;;15.68;;
70543;SDS011;58097;48.364;-1.224;2023-02-16T06:02:57;23.48;;;14.13;;
70543;SDS011;58097;48.364;-1.224;2023-02-16T06:05:23;22.35;;;13.43;;
70543;SDS011;58097;48.364;-1.224;2023-02-16T06:07:49;22.95;;;14.30;;
70543;SDS011;58097;48.364;-1.224;2023-02-16T06:10:14;25.08;;;13.68;;
70543;SDS011;58097;48.364;-1.224;2023-02-16T06:12:40;22.65;;;12.30;;
70543;SDS011;58097;48.364;-1.224;2023-02-16T06:15:05;26.08;;;13.05;;
70543;SDS011;58097;48.364;-1.224;2023-02-16T06:17:31;21.13;;;13.05;;
70543;SDS011;58097;48.364;-1.224;2023-02-16T06:19:56;22.13;;;12.20;;
70543;SDS011;58097;48.364;-1.224;2023-02-16T06:22:22;19.00;;;11.73;;
70543;SDS011;58097;48.364;-1.224;2023-02-16T06:24:47;22.98;;;12.68;;
70543;SDS011;58097;48.364;-1.224;2023-02-16T06:27:12;21.30;;;12.73;;
70543;SDS011;58097;48.364;-1.224;2023-02-16T06:29:38;21.33;;;12.95;;
70543;SDS011;58097;48.364;-1.224;2023-02-16T06:32:03;19.70;;;11.57;;
70543;SDS011;58097;48.364;-1.224;2023-02-16T06:34:28;20.48;;;12.65;;
70543;SDS011;58097;48.364;-1.224;2023-02-16T06:36:54;20.13;;;11.32;;
70543;SDS011;58097;48.364;-1.224;2023-02-16T06:39:19;26.92;;;12.38;;
70543;SDS011;58097;48.364;-1.224;2023-02-16T06:41:45;29.17;;;11.05;;
70543;SDS011;58097;48.364;-1.224;2023-02-16T06:44:11;25.73;;;11.95;;
70543;SDS011;58097;48.364;-1.224;2023-02-16T06:46:43;16.65;;;11.07;;
70543;SDS011;58097;48.364;-1.224;2023-02-16T06:49:10;22.08;;;11.38;;
70543;SDS011;58097;48.364;-1.224;2023-02-16T06:51:37;23.33;;;11.02;;
70543;SDS011;58097;48.364;-1.224;2023-02-16T06:54:02;17.70;;;11.23;;
70543;SDS011;58097;48.364;-1.224;2023-02-16T06:56:27;19.83;;;10.80;;
70543;SDS011;58097;48.364;-1.224;2023-02-16T06:58:53;24.92;;;12.27;;
70543;SDS011;58097;48.364;-1.224;2023-02-16T07:01:18;21.35;;;11.70;;
70543;SDS011;58097;48.364;-1.224;2023-02-16T07:03:47;24.33;;;12.15;;
70543;SDS011;58097;48.364;-1.224;2023-02-16T07:06:14;18.25;;;11.30;;
70543;SDS011;58097;48.364;-1.224;2023-02-16T07:08:39;19.98;;;11.45;;
70543;SDS011;58097;48.364;-1.224;2023-02-16T07:11:04;24.98;;;11.65;;
70543;SDS011;58097;48.364;-1.224;2023-02-16T07:13:30;22.13;;;11.07;;
70543;SDS011;58097;48.364;-1.224;2023-02-16T07:15:55;19.00;;;10.32;;
70543;SDS011;58097;48.364;-1.224;2023-02-16T07:18:21;20.77;;;11.10;;
70543;SDS011;58097;48.364;-1.224;2023-02-16T07:20:46;19.65;;;11.55;;
70543;SDS011;58097;48.364;-1.224;2023-02-16T07:23:12;24.17;;;12.27;;
70543;SDS011;58097;48.364;-1.224;2023-02-16T07:25:37;20.48;;;11.02;;
70543;SDS011;58097;48.364;-1.224;2023-02-16T07:28:02;28.00;;;12.98;;
70543;SDS011;58097;48.364;-1.224;2023-02-16T07:30:28;21.70;;;12.63;;
70543;SDS011;58097;48.364;-1.224;2023-02-16T07:32:53;20.98;;;11.65;;
70543;SDS011;58097;48.364;-1.224;2023-02-16T07:35:19;19.33;;;11.00;;
70543;SDS011;58097;48.364;-1.224;2023-02-16T07:37:45;24.15;;;12.10;;
70543;SDS011;58097;48.364;-1.224;2023-02-16T07:40:10;23.67;;;10.98;;
70543;SDS011;58097;48.364;-1.224;2023-02-16T07:42:36;21.33;;;11.65;;
70543;SDS011;58097;48.364;-1.224;2023-02-16T07:45:02;24.55;;;12.00;;
70543;SDS011;58097;48.364;-1.224;2023-02-16T07:47:27;21.80;;;12.00;;
70543;SDS011;58097;48.364;-1.224;2023-02-16T07:49:52;23.17;;;12.65;;
70543;SDS011;58097;48.364;-1.224;2023-02-16T07:52:18;24.23;;;12.45;;
70543;SDS011;58097;48.364;-1.224;2023-02-16T07:54:43;24.13;;;12.75;;
70543;SDS011;58097;48.364;-1.224;2023-02-16T07:57:08;26.02;;;12.45;;
70543;SDS011;58097;48.364;-1.224;2023-02-16T07:59:34;23.60;;;12.27;;
70543;SDS011;58097;48.364;-1.224;2023-02-16T08:01:59;20.42;;;11.60;;
70543;SDS011;58097;48.364;-1.224;2023-02-16T08:04:24;20.33;;;11.07;;
70543;SDS011;58097;48.364;-1.224;2023-02-16T08:06:50;26.80;;;13.05;;
70543;SDS011;58097;48.364;-1.224;2023-02-16T08:09:16;21.13;;;10.23;;
70543;SDS011;58097;48.364;-1.224;2023-02-16T08:11:41;27.02;;;11.75;;
70543;SDS011;58097;48.364;-1.224;2023-02-16T08:14:06;22.98;;;11.15;;
70543;SDS011;58097;48.364;-1.224;2023-02-16T08:16:32;23.45;;;10.85;;
70543;SDS011;58097;48.364;-1.224;2023-02-16T08:18:58;18.65;;;11.25;;
70543;SDS011;58097;48.364;-1.224;2023-02-16T08:21:26;22.30;;;12.13;;
70543;SDS011;58097;48.364;-1.224;2023-02-16T08:24:04;20.02;;;11.55;;
70543;SDS011;58097;48.364;-1.224;2023-02-16T08:26:35;22.23;;;10.35;;
70543;SDS011;58097;48.364;-1.224;2023-02-16T08:29:03;22.52;;;10.90;;
70543;SDS011;58097;48.364;-1.224;2023-02-16T08:31:30;19.75;;;9.95;;
70543;SDS011;58097;48.364;-1.224;2023-02-16T08:33:59;19.77;;;10.80;;
70543;SDS011;58097;48.364;-1.224;2023-02-16T08:36:26;27.23;;;11.02;;
70543;SDS011;58097;48.364;-1.224;2023-02-16T08:38:54;22.30;;;10.20;;
70543;SDS011;58097;48.364;-1.224;2023-02-16T08:41:21;19.52;;;10.38;;
70543;SDS011;58097;48.364;-1.224;2023-02-16T08:43:48;24.20;;;9.30;;
70543;SDS011;58097;48.364;-1.224;2023-02-16T08:46:15;19.15;;;9.48;;
70543;SDS011;58097;48.364;-1.224;2023-02-16T08:48:41;17.25;;;8.60;;
70543;SDS011;58097;48.364;-1.224;2023-02-16T08:51:12;19.65;;;9.55;;
70543;SDS011;58097;48.364;-1.224;2023-02-16T08:53:38;13.63;;;8.82;;
70543;SDS011;58097;48.364;-1.224;2023-02-16T08:56:04;15.15;;;9.25;;
70543;SDS011;58097;48.364;-1.224;2023-02-16T08:58:30;18.02;;;8.90;;
70543;SDS011;58097;48.364;-1.224;2023-02-16T09:00:56;19.63;;;8.80;;
70543;SDS011;58097;48.364;-1.224;2023-02-16T09:03:22;18.08;;;7.85;;
70543;SDS011;58097;48.364;-1.224;2023-02-16T09:05:49;18.08;;;7.72;;
70543;SDS011;58097;48.364;-1.224;2023-02-16T09:08:16;12.27;;;6.88;;
70543;SDS011;58097;48.364;-1.224;2023-02-16T09:10:43;19.40;;;7.47;;
70543;SDS011;58097;48.364;-1.224;2023-02-16T09:13:08;22.33;;;7.70;;
70543;SDS011;58097;48.364;-1.224;2023-02-16T09:15:40;11.23;;;7.05;;
70543;SDS011;58097;48.364;-1.224;2023-02-16T09:18:09;10.82;;;6.28;;
70543;SDS011;58097;48.364;-1.224;2023-02-16T09:20:37;12.27;;;6.55;;
70543;SDS011;58097;48.364;-1.224;2023-02-16T09:23:05;15.23;;;6.05;;
70543;SDS011;58097;48.364;-1.224;2023-02-16T09:25:35;10.50;;;5.68;;
70543;SDS011;58097;48.364;-1.224;2023-02-16T09:28:02;11.68;;;5.00;;
70543;SDS011;58097;48.364;-1.224;2023-02-16T09:30:29;11.48;;;5.57;;
70543;SDS011;58097;48.364;-1.224;2023-02-16T09:32:56;10.60;;;4.68;;
70543;SDS011;58097;48.364;-1.224;2023-02-16T09:35:23;10.75;;;5.13;;
70543;SDS011;58097;48.364;-1.224;2023-02-16T09:37:49;8.95;;;4.28;;
70543;SDS011;58097;48.364;-1.224;2023-02-16T09:40:15;14.38;;;4.68;;
70543;SDS011;58097;48.364;-1.224;2023-02-16T09:45:19;6.47;;;4.55;;
70543;SDS011;58097;48.364;-1.224;2023-02-16T09:47:47;10.43;;;4.93;;
70543;SDS011;58097;48.364;-1.224;2023-02-16T09:50:19;8.30;;;4.18;;
70543;SDS011;58097;48.364;-1.224;2023-02-16T09:55:16;11.10;;;3.70;;
70543;SDS011;58097;48.364;-1.224;2023-02-16T09:57:53;18.77;;;4.88;;
70543;SDS011;58097;48.364;-1.224;2023-02-16T10:08:29;14.25;;;5.03;;
70543;SDS011;58097;48.364;-1.224;2023-02-16T10:14:00;8.98;;;4.18;;
70543;SDS011;58097;48.364;-1.224;2023-02-16T10:16:33;9.43;;;4.90;;
70543;SDS011;58097;48.364;-1.224;2023-02-16T10:19:10;9.88;;;4.45;;
70543;SDS011;58097;48.364;-1.224;2023-02-16T10:21:49;15.40;;;5.85;;
70543;SDS011;58097;48.364;-1.224;2023-02-16T10:24:19;14.35;;;4.68;;
70543;SDS011;58097;48.364;-1.224;2023-02-16T10:26:45;13.02;;;5.10;;
70543;SDS011;58097;48.364;-1.224;2023-02-16T10:29:17;12.07;;;4.78;;
70543;SDS011;58097;48.364;-1.224;2023-02-16T10:34:49;9.80;;;4.47;;
70543;SDS011;58097;48.364;-1.224;2023-02-16T10:42:57;7.68;;;3.42;;
70543;SDS011;58097;48.364;-1.224;2023-02-16T10:45:30;10.93;;;3.05;;
70543;SDS011;58097;48.364;-1.224;2023-02-16T10:48:01;12.30;;;2.88;;
70543;SDS011;58097;48.364;-1.224;2023-02-16T10:50:39;9.23;;;3.20;;
70543;SDS011;58097;48.364;-1.224;2023-02-16T10:53:09;5.35;;;3.10;;
70543;SDS011;58097;48.364;-1.224;2023-02-16T10:55:42;3.95;;;2.00;;
70543;SDS011;58097;48.364;-1.224;2023-02-16T10:58:16;10.82;;;2.53;;
70543;SDS011;58097;48.364;-1.224;2023-02-16T11:00:49;5.55;;;2.42;;
70543;SDS011;58097;48.364;-1.224;2023-02-16T11:03:18;9.18;;;2.85;;
70543;SDS011;58097;48.364;-1.224;2023-02-16T11:05:48;12.32;;;4.55;;
70543;SDS011;58097;48.364;-1.224;2023-02-16T11:08:13;13.68;;;4.35;;
70543;SDS011;58097;48.364;-1.224;2023-02-16T11:10:48;7.78;;;2.92;;
70543;SDS011;58097;48.364;-1.224;2023-02-16T11:13:22;6.35;;;1.80;;
70543;SDS011;58097;48.364;-1.224;2023-02-16T11:15:52;3.20;;;1.60;;
70543;SDS011;58097;48.364;-1.224;2023-02-16T11:20:54;9.75;;;4.97;;
70543;SDS011;58097;48.364;-1.224;2023-02-16T11:23:39;15.00;;;8.45;;
70543;SDS011;58097;48.364;-1.224;2023-02-16T11:26:20;17.73;;;8.50;;
70543;SDS011;58097;48.364;-1.224;2023-02-16T11:31:17;12.77;;;4.85;;
70543;SDS011;58097;48.364;-1.224;2023-02-16T11:36:45;7.03;;;2.90;;
70543;SDS011;58097;48.364;-1.224;2023-02-16T11:39:20;7.00;;;2.97;;
70543;SDS011;58097;48.364;-1.224;2023-02-16T11:41:51;5.25;;;2.83;;
70543;SDS011;58097;48.364;-1.224;2023-02-16T11:46:55;8.90;;;4.43;;
70543;SDS011;58097;48.364;-1.224;2023-02-16T11:51:56;6.20;;;3.22;;
70543;SDS011;58097;48.364;-1.224;2023-02-16T11:54:21;8.32;;;5.07;;
70543;SDS011;58097;48.364;-1.224;2023-02-16T11:57:00;10.63;;;4.22;;
70543;SDS011;58097;48.364;-1.224;2023-02-16T11:59:29;9.13;;;3.85;;
70543;SDS011;58097;48.364;-1.224;2023-02-16T12:10:10;11.57;;;5.32;;
70543;SDS011;58097;48.364;-1.224;2023-02-16T12:15:47;7.15;;;3.45;;
70543;SDS011;58097;48.364;-1.224;2023-02-16T12:18:31;6.82;;;3.95;;
70543;SDS011;58097;48.364;-1.224;2023-02-16T12:29:49;9.75;;;3.80;;
70543;SDS011;58097;48.364;-1.224;2023-02-16T12:32:29;8.75;;;3.83;;
70543;SDS011;58097;48.364;-1.224;2023-02-16T12:38:17;9.07;;;4.03;;
70543;SDS011;58097;48.364;-1.224;2023-02-16T12:40:57;6.97;;;3.47;;
70543;SDS011;58097;48.364;-1.224;2023-02-16T12:43:31;11.10;;;3.83;;
70543;SDS011;58097;48.364;-1.224;2023-02-16T12:48:56;9.07;;;3.60;;
70543;SDS011;58097;48.364;-1.224;2023-02-16T12:51:34;10.82;;;3.35;;
70543;SDS011;58097;48.364;-1.224;2023-02-16T12:54:06;7.75;;;3.63;;
70543;SDS011;58097;48.364;-1.224;2023-02-16T12:57:19;7.95;;;4.00;;
70543;SDS011;58097;48.364;-1.224;2023-02-16T12:59:56;11.10;;;3.30;;
70543;SDS011;58097;48.364;-1.224;2023-02-16T13:02:34;9.50;;;3.33;;
70543;SDS011;58097;48.364;-1.224;2023-02-16T13:08:06;8.98;;;2.78;;
70543;SDS011;58097;48.364;-1.224;2023-02-16T13:11:01;5.82;;;3.22;;
70543;SDS011;58097;48.364;-1.224;2023-02-16T13:13:31;4.88;;;2.60;;
70543;SDS011;58097;48.364;-1.224;2023-02-16T13:16:13;5.35;;;2.95;;
70543;SDS011;58097;48.364;-1.224;2023-02-16T13:18:40;7.38;;;2.53;;
70543;SDS011;58097;48.364;-1.224;2023-02-16T13:45:37;6.75;;;2.00;;
70543;SDS011;58097;48.364;-1.224;2023-02-16T13:48:19;9.55;;;2.38;;
70543;SDS011;58097;48.364;-1.224;2023-02-16T13:53:19;2.15;;;1.40;;
70543;SDS011;58097;48.364;-1.224;2023-02-16T13:55:46;5.18;;;1.73;;
70543;SDS011;58097;48.364;-1.224;2023-02-16T14:00:41;6.97;;;2.28;;
70543;SDS011;58097;48.364;-1.224;2023-02-16T14:05:44;4.70;;;2.30;;
70543;SDS011;58097;48.364;-1.224;2023-02-16T14:08:19;5.63;;;2.78;;
70543;SDS011;58097;48.364;-1.224;2023-02-16T14:15:54;5.47;;;2.60;;
70543;SDS011;58097;48.364;-1.224;2023-02-16T14:21:03;4.22;;;1.83;;
70543;SDS011;58097;48.364;-1.224;2023-02-16T14:23:31;10.38;;;1.90;;
70543;SDS011;58097;48.364;-1.224;2023-02-16T14:26:01;10.55;;;2.00;;
70543;SDS011;58097;48.364;-1.224;2023-02-16T14:32:46;4.70;;;1.95;;
70543;SDS011;58097;48.364;-1.224;2023-02-16T14:35:18;6.10;;;2.40;;
70543;SDS011;58097;48.364;-1.224;2023-02-16T14:37:52;7.63;;;2.40;;
70543;SDS011;58097;48.364;-1.224;2023-02-16T14:43:01;2.97;;;1.98;;
70543;SDS011;58097;48.364;-1.224;2023-02-16T15:03:00;6.47;;;1.98;;
70543;SDS011;58097;48.364;-1.224;2023-02-16T15:05:38;5.80;;;2.25;;
70543;SDS011;58097;48.364;-1.224;2023-02-16T15:10:41;3.00;;;1.48;;
70543;SDS011;58097;48.364;-1.224;2023-02-16T15:13:17;4.07;;;1.77;;
70543;SDS011;58097;48.364;-1.224;2023-02-16T15:15:50;5.43;;;1.70;;
70543;SDS011;58097;48.364;-1.224;2023-02-16T15:18:30;4.47;;;2.20;;
70543;SDS011;58097;48.364;-1.224;2023-02-16T15:21:01;5.32;;;1.85;;
70543;SDS011;58097;48.364;-1.224;2023-02-16T15:23:31;4.13;;;2.30;;
70543;SDS011;58097;48.364;-1.224;2023-02-16T15:26:06;3.88;;;1.92;;
70543;SDS011;58097;48.364;-1.224;2023-02-16T15:28:54;4.82;;;2.20;;
70543;SDS011;58097;48.364;-1.224;2023-02-16T15:31:20;7.22;;;2.17;;
70543;SDS011;58097;48.364;-1.224;2023-02-16T15:34:00;4.30;;;1.83;;
70543;SDS011;58097;48.364;-1.224;2023-02-16T15:36:40;7.38;;;2.08;;
70543;SDS011;58097;48.364;-1.224;2023-02-16T15:39:23;8.02;;;2.20;;
70543;SDS011;58097;48.364;-1.224;2023-02-16T15:42:08;5.50;;;2.00;;
70543;SDS011;58097;48.364;-1.224;2023-02-16T15:44:43;4.35;;;1.92;;
70543;SDS011;58097;48.364;-1.224;2023-02-16T15:47:30;7.10;;;2.65;;
70543;SDS011;58097;48.364;-1.224;2023-02-16T15:49:54;3.25;;;2.35;;
70543;SDS011;58097;48.364;-1.224;2023-02-16T15:52:31;7.65;;;2.30;;
70543;SDS011;58097;48.364;-1.224;2023-02-16T15:54:59;2.72;;;2.25;;
70543;SDS011;58097;48.364;-1.224;2023-02-16T15:57:28;6.40;;;2.00;;
70543;SDS011;58097;48.364;-1.224;2023-02-16T16:02:41;18.83;;;8.20;;
70543;SDS011;58097;48.364;-1.224;2023-02-16T16:05:25;21.95;;;8.57;;
70543;SDS011;58097;48.364;-1.224;2023-02-16T16:08:03;22.08;;;8.43;;
70543;SDS011;58097;48.364;-1.224;2023-02-16T16:10:31;9.65;;;5.00;;
70543;SDS011;58097;48.364;-1.224;2023-02-16T16:13:04;5.90;;;2.10;;
70543;SDS011;58097;48.364;-1.224;2023-02-16T16:15:37;5.90;;;2.97;;
70543;SDS011;58097;48.364;-1.224;2023-02-16T16:18:29;6.13;;;3.03;;
70543;SDS011;58097;48.364;-1.224;2023-02-16T16:21:09;12.48;;;3.85;;
70543;SDS011;58097;48.364;-1.224;2023-02-16T16:23:45;4.63;;;2.90;;
70543;SDS011;58097;48.364;-1.224;2023-02-16T16:26:28;5.45;;;2.67;;
70543;SDS011;58097;48.364;-1.224;2023-02-16T16:28:59;6.75;;;3.05;;
70543;SDS011;58097;48.364;-1.224;2023-02-16T16:34:05;4.40;;;2.78;;
70543;SDS011;58097;48.364;-1.224;2023-02-16T16:36:36;2.00;;;1.80;;
70543;SDS011;58097;48.364;-1.224;2023-02-16T16:39:24;6.13;;;2.42;;
70543;SDS011;58097;48.364;-1.224;2023-02-16T16:44:31;5.93;;;2.30;;
70543;SDS011;58097;48.364;-1.224;2023-02-16T16:49:55;3.67;;;2.15;;
70543;SDS011;58097;48.364;-1.224;2023-02-16T16:52:47;5.60;;;2.00;;
70543;SDS011;58097;48.364;-1.224;2023-02-16T16:57:46;3.58;;;1.80;;
70543;SDS011;58097;48.364;-1.224;2023-02-16T17:00:13;3.10;;;2.33;;
70543;SDS011;58097;48.364;-1.224;2023-02-16T17:02:39;4.85;;;2.38;;
70543;SDS011;58097;48.364;-1.224;2023-02-16T17:05:04;5.72;;;2.97;;
70543;SDS011;58097;48.364;-1.224;2023-02-16T17:07:30;6.38;;;2.97;;
70543;SDS011;58097;48.364;-1.224;2023-02-16T17:09:57;3.75;;;2.58;;
70543;SDS011;58097;48.364;-1.224;2023-02-16T17:12:23;4.97;;;3.95;;
70543;SDS011;58097;48.364;-1.224;2023-02-16T17:14:49;6.63;;;3.33;;
70543;SDS011;58097;48.364;-1.224;2023-02-16T17:17:15;3.20;;;2.90;;
70543;SDS011;58097;48.364;-1.224;2023-02-16T17:19:40;7.70;;;3.47;;
70543;SDS011;58097;48.364;-1.224;2023-02-16T17:22:12;4.15;;;2.80;;
70543;SDS011;58097;48.364;-1.224;2023-02-16T17:24:42;5.97;;;3.33;;
70543;SDS011;58097;48.364;-1.224;2023-02-16T17:27:08;3.90;;;2.88;;
70543;SDS011;58097;48.364;-1.224;2023-02-16T17:29:34;5.57;;;4.47;;
70543;SDS011;58097;48.364;-1.224;2023-02-16T17:32:00;5.13;;;3.35;;